Time;durP1;ratioP1;P1;durP2;ratioP2;P2;SDS_P1;SDS_P2;PMS_P1;PMS_P2;Temp;Humidity;BMP_temperature;BMP_pressure;BME280_temperature;BME280_humidity;BME280_pressure;Samples;Min_cycle;Max_cycle;Signal;HPM_P1;HPM_P2
2023/06/17 00:02:01;;;;;;;20.48;11.20;;;16.30;99.90;;;;;;5045930;28;20036;-53
2023/06/17 00:04:27;;;;;;;13.52;9.95;;;16.20;99.90;;;;;;5028542;28;20041;-53
2023/06/17 00:06:53;;;;;;;16.77;9.40;;;16.20;99.90;;;;;;5040586;28;20083;-56
2023/06/17 00:09:19;;;;;;;11.07;9.02;;;16.10;99.90;;;;;;5022089;28;20483;-54
2023/06/17 00:11:44;;;;;;;14.35;9.95;;;16.10;99.90;;;;;;5045345;28;20131;-51
2023/06/17 00:14:10;;;;;;;12.20;9.43;;;16.20;99.90;;;;;;5046371;28;20487;-51
2023/06/17 00:16:43;;;;;;;12.25;8.60;;;16.20;99.90;;;;;;5045435;28;20139;-51
2023/06/17 00:19:15;;;;;;;13.33;9.00;;;16.30;99.90;;;;;;5049765;28;20044;-53
2023/06/17 00:21:42;;;;;;;14.13;11.00;;;16.40;99.90;;;;;;5041709;28;20309;-53
2023/06/17 00:24:08;;;;;;;15.85;9.25;;;16.40;99.90;;;;;;5030933;28;20423;-54
2023/06/17 00:26:34;;;;;;;14.70;10.73;;;16.40;99.90;;;;;;5047913;28;20068;-55
2023/06/17 00:28:59;;;;;;;14.57;10.05;;;16.40;99.90;;;;;;5051583;28;20028;-53
2023/06/17 00:31:25;;;;;;;16.23;10.80;;;16.40;99.90;;;;;;5060058;28;20447;-53
2023/06/17 00:33:51;;;;;;;13.15;9.50;;;16.50;99.90;;;;;;5046689;28;20044;-53
2023/06/17 00:36:17;;;;;;;13.95;9.02;;;16.40;99.90;;;;;;5031484;28;20075;-54
2023/06/17 00:38:42;;;;;;;15.60;9.48;;;16.50;99.90;;;;;;5041992;28;20394;-53
2023/06/17 00:41:08;;;;;;;21.13;11.07;;;16.50;99.90;;;;;;5045704;28;20055;-52
2023/06/17 00:43:34;;;;;;;14.65;10.82;;;16.50;99.90;;;;;;5031535;28;20135;-52
2023/06/17 00:46:00;;;;;;;13.15;10.38;;;16.50;99.90;;;;;;5031550;28;20123;-54
2023/06/17 00:48:26;;;;;;;13.95;9.73;;;16.40;99.90;;;;;;5042590;28;20547;-53
2023/06/17 00:50:52;;;;;;;13.75;10.30;;;16.40;99.90;;;;;;5044857;28;20040;-52
2023/06/17 00:53:18;;;;;;;14.90;10.43;;;16.40;99.90;;;;;;5029361;28;20131;-53
2023/06/17 00:55:44;;;;;;;11.48;8.20;;;16.30;99.90;;;;;;5028001;28;20059;-53
2023/06/17 00:58:11;;;;;;;12.05;8.63;;;16.40;99.90;;;;;;5037124;28;20037;-56
2023/06/17 01:00:37;;;;;;;10.98;8.80;;;16.30;99.90;;;;;;5064348;28;20139;-53
2023/06/17 01:03:05;;;;;;;12.95;9.10;;;16.20;99.90;;;;;;5051464;28;20203;-55
2023/06/17 01:05:32;;;;;;;18.35;9.98;;;16.30;99.90;;;;;;5064146;28;20052;-51
2023/06/17 01:08:14;;;;;;;17.48;11.52;;;16.30;99.90;;;;;;5048320;28;20128;-52
2023/06/17 01:10:48;;;;;;;11.82;8.85;;;16.20;99.90;;;;;;5041652;28;20386;-55
2023/06/17 01:13:16;;;;;;;14.73;9.95;;;16.20;99.90;;;;;;5048498;28;20066;-56
2023/06/17 01:15:42;;;;;;;16.73;11.88;;;16.20;99.90;;;;;;5031561;28;20380;-53
2023/06/17 01:18:08;;;;;;;14.52;12.70;;;16.20;99.90;;;;;;5025390;28;20044;-51
2023/06/17 01:20:35;;;;;;;13.02;11.48;;;16.30;99.90;;;;;;5060048;28;20060;-53
2023/06/17 01:23:03;;;;;;;16.92;14.10;;;16.30;99.90;;;;;;5061734;28;20602;-59
2023/06/17 01:25:30;;;;;;;20.63;14.70;;;16.30;99.90;;;;;;5060560;28;20631;-53
2023/06/17 01:28:03;;;;;;;19.65;13.75;;;16.30;99.90;;;;;;5050795;28;20052;-54
2023/06/17 01:30:29;;;;;;;21.02;14.63;;;16.30;99.90;;;;;;5033242;28;20093;-52
2023/06/17 01:33:00;;;;;;;17.42;14.05;;;16.30;99.90;;;;;;5025221;28;20056;-52
2023/06/17 01:35:31;;;;;;;22.88;17.58;;;16.30;99.90;;;;;;5032389;28;20099;-57
2023/06/17 01:38:05;;;;;;;24.20;16.80;;;16.30;99.90;;;;;;5042397;28;20036;-53
2023/06/17 01:40:32;;;;;;;24.02;16.60;;;16.30;99.90;;;;;;5025296;28;20084;-54
2023/06/17 01:43:01;;;;;;;24.05;17.75;;;16.30;99.90;;;;;;5043687;28;20045;-52
2023/06/17 01:45:27;;;;;;;23.02;15.55;;;16.30;99.90;;;;;;5029537;28;20488;-56
2023/06/17 01:47:53;;;;;;;29.27;19.70;;;16.30;99.90;;;;;;5026314;28;20048;-56
2023/06/17 01:50:19;;;;;;;26.63;17.63;;;16.30;99.90;;;;;;5043232;28;20117;-54
2023/06/17 01:52:46;;;;;;;23.63;17.95;;;16.30;99.90;;;;;;5051481;28;20028;-55
2023/06/17 01:55:12;;;;;;;23.70;16.45;;;16.30;99.90;;;;;;5054128;28;20041;-53
2023/06/17 01:57:38;;;;;;;28.45;20.55;;;16.30;99.90;;;;;;5040801;28;20044;-54
2023/06/17 02:00:05;;;;;;;22.00;19.02;;;16.30;99.90;;;;;;5065555;28;20246;-54
2023/06/17 02:02:30;;;;;;;23.20;17.23;;;16.20;99.90;;;;;;5043281;28;20407;-52
2023/06/17 02:04:57;;;;;;;25.20;17.45;;;16.30;99.90;;;;;;5043488;28;20043;-53
2023/06/17 02:07:25;;;;;;;28.45;18.77;;;16.30;99.90;;;;;;5042787;28;20064;-51
2023/06/17 02:09:52;;;;;;;24.90;19.40;;;16.30;99.90;;;;;;5047818;28;20453;-55
2023/06/17 02:12:17;;;;;;;27.88;20.70;;;16.20;99.90;;;;;;5048775;28;20419;-53
2023/06/17 02:14:43;;;;;;;32.95;21.60;;;16.20;99.90;;;;;;5059832;28;20106;-56
2023/06/17 02:17:11;;;;;;;25.15;20.02;;;16.20;99.90;;;;;;5043995;28;20718;-51
2023/06/17 02:19:37;;;;;;;26.80;20.20;;;16.20;99.90;;;;;;5066296;28;20047;-55
2023/06/17 02:22:04;;;;;;;26.08;20.90;;;16.20;99.90;;;;;;5046257;28;20475;-53
2023/06/17 02:24:30;;;;;;;26.65;20.67;;;16.20;99.90;;;;;;5047470;28;20032;-53
2023/06/17 02:26:56;;;;;;;28.27;20.85;;;16.20;99.90;;;;;;5063686;28;20036;-51
2023/06/17 02:29:22;;;;;;;28.23;21.40;;;16.20;99.90;;;;;;5026727;28;20073;-55
2023/06/17 02:31:48;;;;;;;24.75;19.08;;;16.20;99.90;;;;;;5026666;28;20076;-54
2023/06/17 02:34:13;;;;;;;32.03;21.67;;;16.20;99.90;;;;;;5042946;28;20048;-54
2023/06/17 02:36:39;;;;;;;24.58;18.05;;;16.20;99.90;;;;;;5048338;28;20047;-52
2023/06/17 02:39:06;;;;;;;24.10;16.83;;;16.20;99.90;;;;;;5063324;28;20298;-55
2023/06/17 02:41:32;;;;;;;28.70;21.92;;;16.20;99.90;;;;;;5067758;28;20719;-52
2023/06/17 02:43:58;;;;;;;29.25;21.33;;;16.30;99.90;;;;;;5068241;28;20055;-53
2023/06/17 02:46:27;;;;;;;26.83;21.25;;;16.20;99.90;;;;;;5051250;28;20257;-54
2023/06/17 02:48:54;;;;;;;28.02;21.02;;;16.30;99.90;;;;;;5059441;28;20032;-51
2023/06/17 02:51:20;;;;;;;32.03;21.55;;;16.20;99.90;;;;;;5063725;28;20477;-54
2023/06/17 02:53:46;;;;;;;24.65;19.85;;;16.20;99.90;;;;;;5027376;28;20028;-52
2023/06/17 02:56:11;;;;;;;24.30;18.83;;;16.00;99.90;;;;;;5043514;28;20479;-52
2023/06/17 02:58:38;;;;;;;29.38;20.63;;;16.00;99.90;;;;;;5044518;28;20044;-55
2023/06/17 03:01:05;;;;;;;27.27;20.70;;;16.00;99.90;;;;;;5027530;28;20079;-52
2023/06/17 03:03:35;;;;;;;30.00;20.55;;;16.10;99.90;;;;;;5045976;28;20402;-53
2023/06/17 03:06:03;;;;;;;26.58;18.48;;;16.10;99.90;;;;;;5051246;28;20045;-53
2023/06/17 03:08:39;;;;;;;29.15;20.90;;;16.00;99.90;;;;;;5035295;28;20032;-54
2023/06/17 03:11:05;;;;;;;27.45;19.30;;;16.10;99.90;;;;;;5050362;28;20547;-53
2023/06/17 03:13:31;;;;;;;25.20;18.10;;;16.20;99.90;;;;;;5046959;28;20074;-56
2023/06/17 03:15:59;;;;;;;30.65;19.40;;;16.20;99.90;;;;;;5053152;28;20123;-53
2023/06/17 03:18:25;;;;;;;27.10;20.33;;;16.20;99.90;;;;;;5053867;28;20083;-52
2023/06/17 03:20:55;;;;;;;28.80;20.45;;;16.20;99.90;;;;;;5063246;28;20032;-55
2023/06/17 03:23:21;;;;;;;30.63;23.42;;;16.20;99.90;;;;;;5047659;28;20511;-54
2023/06/17 03:25:51;;;;;;;34.05;26.52;;;16.10;99.90;;;;;;5031639;28;20127;-55
2023/06/17 03:28:17;;;;;;;32.90;25.67;;;16.00;99.90;;;;;;5047575;28;20450;-50
2023/06/17 03:30:43;;;;;;;32.55;26.50;;;16.00;99.90;;;;;;5049668;28;20446;-54
2023/06/17 03:33:11;;;;;;;30.50;24.60;;;16.00;99.90;;;;;;5051087;28;20128;-54
2023/06/17 03:35:40;;;;;;;28.30;21.92;;;16.00;99.90;;;;;;5064044;28;20059;-55
2023/06/17 03:38:07;;;;;;;27.40;20.83;;;15.90;99.90;;;;;;5035796;28;20457;-56
2023/06/17 03:40:33;;;;;;;28.17;21.15;;;15.90;99.90;;;;;;5067038;28;20418;-52
2023/06/17 03:42:59;;;;;;;28.98;23.70;;;15.90;99.90;;;;;;5030548;28;20106;-51
2023/06/17 03:45:25;;;;;;;28.02;20.02;;;16.00;99.90;;;;;;5046918;28;20050;-54
2023/06/17 03:47:50;;;;;;;28.75;18.90;;;16.00;99.90;;;;;;5050464;28;20048;-56
2023/06/17 03:50:16;;;;;;;26.65;18.35;;;16.10;99.90;;;;;;5046943;28;20044;-52
2023/06/17 03:52:42;;;;;;;24.92;17.98;;;16.00;99.90;;;;;;5065910;28;20237;-50
2023/06/17 03:55:08;;;;;;;27.35;19.13;;;16.10;99.90;;;;;;5042924;28;20044;-54
2023/06/17 03:57:34;;;;;;;19.30;15.50;;;16.10;99.90;;;;;;5059165;28;20041;-54
2023/06/17 04:00:00;;;;;;;24.67;16.65;;;16.00;99.90;;;;;;5030093;28;20044;-54
2023/06/17 04:02:25;;;;;;;24.38;18.38;;;16.10;99.90;;;;;;5024759;28;20054;-55
2023/06/17 04:04:52;;;;;;;30.48;19.25;;;16.10;99.90;;;;;;5049552;28;20094;-50
2023/06/17 04:07:19;;;;;;;24.92;17.73;;;16.10;99.90;;;;;;5030967;28;20473;-54
2023/06/17 04:09:45;;;;;;;27.70;19.55;;;16.10;99.90;;;;;;5048139;28;20040;-53
2023/06/17 04:12:11;;;;;;;21.02;18.05;;;16.10;99.90;;;;;;5056436;28;20183;-52
2023/06/17 04:14:37;;;;;;;24.38;17.85;;;16.10;99.90;;;;;;5059284;28;20583;-54
2023/06/17 04:17:03;;;;;;;23.55;19.40;;;16.10;99.90;;;;;;5046631;28;20122;-53
2023/06/17 04:19:31;;;;;;;23.00;18.75;;;16.10;99.90;;;;;;5042923;28;20043;-58
2023/06/17 04:21:57;;;;;;;21.83;16.58;;;16.10;99.90;;;;;;5039496;28;20127;-51
2023/06/17 04:24:23;;;;;;;26.73;17.80;;;16.10;99.90;;;;;;5067532;28;20127;-55
2023/06/17 04:26:52;;;;;;;23.05;17.05;;;16.10;99.90;;;;;;5067156;28;20372;-50
2023/06/17 04:29:18;;;;;;;21.33;16.27;;;16.10;99.90;;;;;;5060507;28;20054;-54
2023/06/17 04:31:46;;;;;;;24.90;18.33;;;16.00;99.90;;;;;;5047744;28;20502;-51
2023/06/17 04:34:21;;;;;;;25.98;18.75;;;16.10;99.90;;;;;;5034636;28;20051;-52
2023/06/17 04:36:56;;;;;;;20.02;15.75;;;16.10;99.90;;;;;;5066585;28;20047;-56
2023/06/17 04:39:28;;;;;;;21.33;16.45;;;16.10;99.90;;;;;;5049573;22;20088;-59
2023/06/17 04:41:54;;;;;;;22.58;18.10;;;16.10;99.90;;;;;;5062590;28;20028;-60
2023/06/17 04:44:20;;;;;;;21.25;17.83;;;16.10;99.90;;;;;;5066732;28;20526;-59
2023/06/17 04:46:48;;;;;;;23.23;17.98;;;16.10;99.90;;;;;;5048611;28;20043;-59
2023/06/17 04:49:15;;;;;;;26.30;18.55;;;16.00;99.90;;;;;;5058462;28;20395;-59
2023/06/17 04:51:41;;;;;;;24.42;18.10;;;15.90;99.90;;;;;;5062535;28;20071;-60
2023/06/17 04:54:07;;;;;;;24.50;17.77;;;16.00;99.90;;;;;;5025291;28;20067;-60
2023/06/17 04:56:33;;;;;;;22.90;16.63;;;16.00;99.90;;;;;;5045057;28;20551;-60
2023/06/17 04:58:59;;;;;;;21.80;17.35;;;16.00;99.90;;;;;;5051890;28;20293;-60
2023/06/17 05:01:25;;;;;;;25.80;18.05;;;16.00;99.90;;;;;;5065314;28;20032;-60
2023/06/17 05:03:51;;;;;;;23.25;18.13;;;16.10;99.90;;;;;;5062552;28;20391;-58
2023/06/17 05:06:16;;;;;;;20.80;16.70;;;16.20;99.90;;;;;;5045594;28;20048;-60
2023/06/17 05:08:42;;;;;;;21.95;15.00;;;16.20;99.90;;;;;;5065824;28;20028;-60
2023/06/17 05:11:08;;;;;;;22.27;14.85;;;16.20;99.90;;;;;;5027594;28;20443;-59
2023/06/17 05:13:34;;;;;;;24.10;18.17;;;16.30;99.90;;;;;;5060783;28;20028;-58
2023/06/17 05:15:59;;;;;;;21.00;16.13;;;16.30;99.90;;;;;;5043178;28;20040;-58
2023/06/17 05:18:25;;;;;;;24.10;17.48;;;16.40;99.90;;;;;;5031061;28;20040;-60
2023/06/17 05:20:51;;;;;;;27.45;18.10;;;16.50;99.90;;;;;;5062184;28;20561;-60
2023/06/17 05:23:17;;;;;;;25.27;19.73;;;16.50;99.90;;;;;;5054991;28;20595;-60
2023/06/17 05:25:42;;;;;;;30.08;19.92;;;16.50;99.90;;;;;;5060587;28;20041;-59
2023/06/17 05:28:10;;;;;;;27.50;19.52;;;16.40;99.90;;;;;;5058402;28;20037;-60
2023/06/17 05:30:38;;;;;;;25.98;19.25;;;16.50;99.90;;;;;;5057936;28;20410;-58
2023/06/17 05:33:04;;;;;;;24.48;20.33;;;16.40;99.90;;;;;;5041932;28;20048;-59
2023/06/17 05:35:30;;;;;;;28.13;19.10;;;16.40;99.90;;;;;;5062064;28;20047;-60
2023/06/17 05:37:55;;;;;;;23.55;19.98;;;16.40;99.90;;;;;;5047260;28;20497;-59
2023/06/17 05:40:27;;;;;;;26.20;19.40;;;16.40;99.90;;;;;;5065041;28;20438;-59
2023/06/17 05:42:53;;;;;;;23.33;17.48;;;16.50;99.90;;;;;;5045950;28;20127;-59
2023/06/17 05:45:18;;;;;;;32.78;23.65;;;16.50;99.90;;;;;;5061478;28;20140;-60
2023/06/17 05:47:47;;;;;;;25.90;20.10;;;16.60;99.90;;;;;;5045718;28;20036;-60
2023/06/17 05:50:16;;;;;;;24.45;18.88;;;16.60;99.90;;;;;;5045754;28;20040;-59
2023/06/17 05:52:41;;;;;;;21.58;16.42;;;16.60;99.90;;;;;;5058645;28;20455;-59
2023/06/17 05:55:09;;;;;;;24.38;19.42;;;16.60;99.90;;;;;;5053763;28;20140;-60
2023/06/17 05:57:35;;;;;;;23.30;17.10;;;16.70;99.90;;;;;;5056112;28;20045;-60
2023/06/17 06:00:01;;;;;;;24.10;17.63;;;16.70;99.90;;;;;;5062177;28;20396;-60
2023/06/17 06:02:27;;;;;;;20.95;15.52;;;16.70;99.90;;;;;;5053585;28;20048;-59
2023/06/17 06:04:52;;;;;;;22.35;15.38;;;16.70;99.90;;;;;;5051574;28;20048;-60
2023/06/17 06:07:18;;;;;;;21.50;15.10;;;16.70;99.90;;;;;;5059496;28;20047;-60
2023/06/17 06:09:44;;;;;;;19.77;14.73;;;16.70;99.90;;;;;;5028687;28;20484;-59
2023/06/17 06:12:10;;;;;;;20.88;14.80;;;16.70;99.90;;;;;;5061202;28;20072;-59
2023/06/17 06:14:36;;;;;;;20.80;15.30;;;16.70;99.90;;;;;;5033047;28;20598;-58
2023/06/17 06:17:02;;;;;;;20.70;14.45;;;16.80;99.90;;;;;;5061396;28;20036;-60
2023/06/17 06:19:27;;;;;;;15.57;13.95;;;16.80;99.90;;;;;;5048167;28;20028;-60
2023/06/17 06:21:53;;;;;;;18.17;15.40;;;16.90;99.90;;;;;;5042992;28;20042;-60
2023/06/17 06:24:19;;;;;;;15.98;13.48;;;17.00;99.90;;;;;;5063622;28;20234;-59
2023/06/17 06:26:44;;;;;;;21.52;16.02;;;17.00;99.90;;;;;;5043383;28;20048;-60
2023/06/17 06:29:10;;;;;;;18.85;15.27;;;17.10;99.90;;;;;;5046962;28;20036;-59
2023/06/17 06:31:36;;;;;;;23.83;14.38;;;17.10;99.90;;;;;;5062313;28;20039;-58
2023/06/17 06:34:01;;;;;;;22.08;15.00;;;17.10;99.90;;;;;;5061802;28;20490;-58
2023/06/17 06:36:27;;;;;;;19.08;15.15;;;17.20;99.90;;;;;;5057307;28;20331;-58
2023/06/17 06:38:53;;;;;;;20.05;14.65;;;17.20;99.90;;;;;;5038388;28;20499;-58
2023/06/17 06:41:19;;;;;;;22.00;13.90;;;17.20;99.90;;;;;;5061054;28;20033;-59
2023/06/17 06:43:45;;;;;;;20.52;15.02;;;17.30;99.90;;;;;;5027345;28;20049;-59
2023/06/17 06:46:11;;;;;;;20.73;14.73;;;17.40;99.90;;;;;;5058724;28;20044;-59
2023/06/17 06:48:37;;;;;;;22.73;13.50;;;17.50;99.90;;;;;;5058801;28;20491;-59
2023/06/17 06:51:02;;;;;;;18.05;12.55;;;17.50;99.90;;;;;;5033885;28;20032;-59
2023/06/17 06:53:28;;;;;;;16.73;13.15;;;17.60;99.90;;;;;;5031557;28;20557;-58
2023/06/17 06:55:54;;;;;;;20.23;14.73;;;17.60;99.90;;;;;;5045586;28;20049;-58
2023/06/17 06:58:20;;;;;;;17.85;14.48;;;17.60;99.90;;;;;;5044695;28;20087;-59
2023/06/17 07:00:45;;;;;;;22.67;13.90;;;17.60;99.90;;;;;;5026841;28;20075;-59
2023/06/17 07:03:11;;;;;;;18.15;13.48;;;17.70;99.90;;;;;;5016769;28;20457;-58
2023/06/17 07:05:37;;;;;;;22.63;13.90;;;17.80;99.90;;;;;;5059581;28;20086;-59
2023/06/17 07:08:03;;;;;;;17.50;12.52;;;17.90;99.90;;;;;;5044945;28;20475;-59
2023/06/17 07:10:28;;;;;;;18.00;12.55;;;18.00;99.90;;;;;;5047028;28;20045;-59
2023/06/17 07:12:55;;;;;;;17.63;13.05;;;18.00;99.90;;;;;;5064052;28;20044;-59
2023/06/17 07:15:22;;;;;;;16.95;12.20;;;18.00;99.90;;;;;;5058903;28;20051;-59
2023/06/17 07:17:47;;;;;;;18.17;12.98;;;18.00;99.90;;;;;;5042704;28;20052;-59
2023/06/17 07:20:13;;;;;;;18.85;13.68;;;18.10;99.90;;;;;;5063977;28;20495;-59
2023/06/17 07:22:39;;;;;;;19.52;13.35;;;18.20;99.90;;;;;;5042161;28;20110;-59
2023/06/17 07:25:05;;;;;;;20.73;13.52;;;18.20;99.90;;;;;;5062261;28;20044;-59
2023/06/17 07:27:31;;;;;;;19.25;12.60;;;18.30;99.90;;;;;;5047834;28;20045;-59
2023/06/17 07:29:56;;;;;;;21.40;13.43;;;18.30;99.90;;;;;;5059431;28;20102;-59
2023/06/17 07:32:22;;;;;;;17.40;12.98;;;18.30;99.90;;;;;;5047759;28;20039;-59
2023/06/17 07:34:48;;;;;;;22.70;14.07;;;18.30;99.90;;;;;;5031785;28;20479;-59
2023/06/17 07:37:14;;;;;;;22.77;14.73;;;18.40;99.90;;;;;;5061940;28;20076;-59
2023/06/17 07:39:39;;;;;;;15.45;12.55;;;18.50;99.90;;;;;;5045956;28;20119;-59
2023/06/17 07:42:05;;;;;;;20.48;14.05;;;18.50;99.90;;;;;;5036250;28;20397;-59
2023/06/17 07:44:32;;;;;;;18.33;14.07;;;18.60;99.90;;;;;;5043373;28;20037;-59
2023/06/17 07:46:58;;;;;;;18.42;13.68;;;18.70;99.90;;;;;;5024505;28;20044;-58
2023/06/17 07:49:23;;;;;;;20.55;13.13;;;18.80;99.90;;;;;;5060314;28;20037;-59
2023/06/17 07:51:49;;;;;;;15.88;13.05;;;18.90;99.90;;;;;;5060807;28;20093;-58
2023/06/17 07:54:15;;;;;;;18.73;12.80;;;19.10;99.90;;;;;;5041620;28;20048;-59
2023/06/17 07:56:41;;;;;;;18.17;13.25;;;19.20;99.90;;;;;;5026076;28;20094;-59
2023/06/17 07:59:07;;;;;;;16.13;12.00;;;19.30;99.90;;;;;;5047481;28;20051;-59
2023/06/17 08:01:33;;;;;;;16.50;12.52;;;19.20;99.90;;;;;;5059483;28;20048;-62
2023/06/17 08:03:59;;;;;;;17.42;12.75;;;19.40;99.90;;;;;;5028955;28;20048;-61
2023/06/17 08:06:24;;;;;;;15.88;11.63;;;19.50;99.90;;;;;;5048813;28;20040;-61
2023/06/17 08:08:51;;;;;;;17.95;13.70;;;19.60;99.90;;;;;;5051728;28;20032;-60
2023/06/17 08:11:17;;;;;;;19.35;13.50;;;19.70;99.90;;;;;;5048660;28;20040;-61
2023/06/17 08:13:43;;;;;;;17.30;12.90;;;19.80;99.90;;;;;;5062766;28;20032;-60
2023/06/17 08:16:08;;;;;;;22.25;13.95;;;19.80;99.90;;;;;;5046282;28;20051;-59
2023/06/17 08:18:39;;;;;;;15.32;11.77;;;19.90;99.90;;;;;;5043640;28;20032;-60
2023/06/17 08:21:05;;;;;;;15.27;12.48;;;20.00;99.90;;;;;;5050462;28;20052;-60
2023/06/17 08:23:31;;;;;;;20.85;14.20;;;20.10;99.90;;;;;;5064971;28;20509;-60
2023/06/17 08:25:56;;;;;;;22.45;14.20;;;20.20;99.90;;;;;;5049812;28;20047;-60
2023/06/17 08:28:22;;;;;;;17.90;12.60;;;20.40;99.90;;;;;;5064397;28;20074;-60
2023/06/17 08:30:49;;;;;;;20.83;14.07;;;20.40;99.90;;;;;;5072274;28;20360;-60
2023/06/17 08:33:15;;;;;;;19.90;13.07;;;20.40;99.90;;;;;;5060819;28;20033;-59
2023/06/17 08:35:41;;;;;;;17.65;13.25;;;20.40;99.90;;;;;;5065762;28;20506;-60
2023/06/17 08:38:06;;;;;;;18.40;14.18;;;20.50;99.90;;;;;;5062206;28;20076;-60
2023/06/17 08:40:34;;;;;;;20.63;12.38;;;20.40;99.90;;;;;;5063272;28;20074;-60
2023/06/17 08:43:04;;;;;;;15.73;12.40;;;20.40;99.90;;;;;;5068932;28;20114;-60
2023/06/17 08:45:30;;;;;;;34.08;14.18;;;20.50;99.90;;;;;;5063873;28;20091;-60
2023/06/17 08:47:57;;;;;;;18.52;12.43;;;20.60;99.90;;;;;;5054942;28;20069;-60
2023/06/17 08:50:25;;;;;;;17.00;12.55;;;20.70;99.90;;;;;;5066531;28;20563;-59
2023/06/17 08:52:51;;;;;;;18.77;12.85;;;20.70;99.90;;;;;;5057418;28;20483;-59
2023/06/17 08:55:20;;;;;;;16.80;13.48;;;20.60;99.90;;;;;;5058495;28;20047;-59
2023/06/17 08:57:50;;;;;;;21.70;13.63;;;20.70;99.90;;;;;;5045148;28;20052;-60
2023/06/17 09:00:16;;;;;;;18.80;13.23;;;20.70;99.90;;;;;;5020232;28;20408;-60
2023/06/17 09:02:44;;;;;;;17.23;11.52;;;20.60;99.90;;;;;;5045303;28;20040;-60
2023/06/17 09:05:10;;;;;;;15.77;11.18;;;20.80;99.90;;;;;;5060152;28;20051;-60
2023/06/17 09:07:37;;;;;;;17.65;12.70;;;21.00;99.90;;;;;;5032223;28;20044;-60
2023/06/17 09:10:05;;;;;;;17.45;13.35;;;21.10;99.90;;;;;;5043769;28;20143;-60
2023/06/17 09:12:40;;;;;;;17.75;12.27;;;21.20;99.90;;;;;;5063416;28;20605;-60
2023/06/17 09:15:07;;;;;;;15.32;11.30;;;21.40;99.90;;;;;;5061671;28;20044;-59
2023/06/17 09:17:36;;;;;;;16.80;12.25;;;21.50;99.90;;;;;;5043663;28;20501;-60
2023/06/17 09:20:10;;;;;;;19.80;15.40;;;21.50;99.90;;;;;;5040833;28;20044;-58
2023/06/17 09:22:46;;;;;;;;;;;21.60;99.90;;;;;;5042486;28;20076;-59
2023/06/17 09:25:14;;;;;;;17.35;13.60;;;21.50;99.90;;;;;;5032342;28;19947;-60
2023/06/17 09:27:51;;;;;;;19.52;12.43;;;21.60;99.90;;;;;;5042978;28;21051;-61
2023/06/17 09:30:17;;;;;;;18.63;12.25;;;21.80;99.90;;;;;;5066134;28;20462;-60
2023/06/17 09:32:44;;;;;;;15.95;11.90;;;21.90;99.90;;;;;;5057729;28;20289;-59
2023/06/17 09:35:14;;;;;;;14.90;11.73;;;22.00;99.90;;;;;;5048847;28;20049;-60
2023/06/17 09:37:42;;;;;;;15.68;10.68;;;22.20;99.90;;;;;;5059954;28;20037;-61
2023/06/17 09:40:09;;;;;;;14.40;10.32;;;22.30;99.90;;;;;;5060572;28;20463;-60
2023/06/17 09:42:35;;;;;;;15.95;10.77;;;22.30;99.90;;;;;;5044938;28;20514;-60
2023/06/17 09:45:06;;;;;;;17.17;12.63;;;22.30;99.90;;;;;;5066716;28;20119;-60
2023/06/17 09:47:37;;;;;;;17.15;11.32;;;22.30;99.90;;;;;;5047424;28;20044;-61
2023/06/17 09:50:11;;;;;;;12.60;11.30;;;22.40;99.90;;;;;;5047222;28;20236;-61
2023/06/17 09:52:38;;;;;;;17.80;12.60;;;22.40;99.90;;;;;;5031912;28;20083;-61
2023/06/17 09:55:05;;;;;;;17.80;12.50;;;22.50;99.90;;;;;;5057195;28;20450;-61
2023/06/17 09:57:31;;;;;;;16.52;12.32;;;22.60;99.90;;;;;;5048440;28;20056;-58
2023/06/17 10:00:09;;;;;;;15.82;11.63;;;22.70;99.90;;;;;;5053034;28;20127;-58
2023/06/17 10:02:39;;;;;;;15.93;10.60;;;22.70;99.90;;;;;;5040686;28;20047;-58
2023/06/17 10:05:07;;;;;;;15.95;11.57;;;22.90;99.90;;;;;;5065422;28;20048;-61
2023/06/17 10:07:34;;;;;;;19.15;12.43;;;22.80;99.90;;;;;;5055683;28;20041;-59
2023/06/17 10:10:00;;;;;;;17.27;12.02;;;22.90;99.90;;;;;;5035658;28;20039;-59
2023/06/17 10:12:27;;;;;;;16.52;11.43;;;23.10;99.90;;;;;;5043398;28;20129;-59
2023/06/17 10:14:53;;;;;;;15.10;11.52;;;23.30;99.90;;;;;;5056498;28;20045;-59
2023/06/17 10:17:22;;;;;;;14.15;10.55;;;23.10;99.60;;;;;;5054850;28;20099;-59
2023/06/17 10:19:49;;;;;;;14.73;11.45;;;23.20;99.90;;;;;;5063568;28;20435;-59
2023/06/17 10:22:19;;;;;;;13.18;10.23;;;23.30;99.90;;;;;;5044110;28;20060;-60
2023/06/17 10:24:47;;;;;;;16.65;11.63;;;23.30;99.80;;;;;;5062375;28;20107;-59
2023/06/17 10:27:13;;;;;;;18.08;12.65;;;23.50;99.80;;;;;;5066715;28;20044;-60
2023/06/17 10:29:43;;;;;;;14.77;10.45;;;23.30;99.10;;;;;;5061791;28;20043;-59
2023/06/17 10:32:26;;;;;;;13.05;11.07;;;23.40;99.60;;;;;;5060583;28;20041;-60
2023/06/17 10:35:13;;;;;;;18.27;11.70;;;23.40;99.20;;;;;;5047304;28;20044;-59
2023/06/17 10:37:45;;;;;;;14.95;10.50;;;23.60;99.60;;;;;;5060872;28;20040;-58
2023/06/17 10:40:21;;;;;;;14.10;10.20;;;23.90;99.30;;;;;;5065055;28;20105;-60
2023/06/17 10:43:16;;;;;;;14.93;11.20;;;24.10;98.90;;;;;;5062667;28;20095;-59
2023/06/17 10:45:49;;;;;;;16.10;11.43;;;24.00;98.40;;;;;;5057750;28;20048;-59
2023/06/17 10:48:25;;;;;;;16.27;10.93;;;24.20;98.60;;;;;;5058787;28;20123;-59
2023/06/17 10:50:56;;;;;;;15.73;11.57;;;24.10;98.30;;;;;;5062487;28;20112;-59
2023/06/17 10:53:29;;;;;;;14.88;10.50;;;24.20;98.50;;;;;;5055844;28;20040;-59
2023/06/17 10:55:56;;;;;;;12.50;10.20;;;24.40;98.50;;;;;;5036731;28;20055;-59
2023/06/17 10:58:27;;;;;;;17.98;11.32;;;24.60;98.30;;;;;;5064994;28;20044;-59
2023/06/17 11:01:04;;;;;;;16.23;10.32;;;24.80;98.20;;;;;;5056012;28;20039;-59
2023/06/17 11:03:30;;;;;;;13.32;10.23;;;24.90;97.90;;;;;;5066370;28;20519;-59
2023/06/17 11:06:04;;;;;;;12.23;10.15;;;25.00;97.80;;;;;;5048815;28;20047;-59
2023/06/17 11:08:31;;;;;;;15.15;10.88;;;24.90;97.40;;;;;;5064846;28;20043;-59
2023/06/17 11:11:13;;;;;;;14.60;11.95;;;24.70;97.20;;;;;;5067997;28;20120;-59
2023/06/17 11:13:42;;;;;;;13.13;10.00;;;24.40;96.70;;;;;;5068158;28;20068;-60
2023/06/17 11:16:08;;;;;;;15.30;11.45;;;24.30;97.60;;;;;;5067243;28;20041;-59
2023/06/17 11:18:39;;;;;;;13.73;11.25;;;24.30;97.10;;;;;;5050027;28;20044;-59
2023/06/17 11:21:05;;;;;;;13.00;10.13;;;24.40;97.20;;;;;;5070450;28;20079;-59
2023/06/17 11:23:31;;;;;;;13.77;11.65;;;24.70;96.90;;;;;;5067970;28;20142;-58
2023/06/17 11:25:58;;;;;;;16.70;11.18;;;24.60;96.50;;;;;;5049178;28;22858;-59
2023/06/17 11:28:23;;;;;;;13.07;9.63;;;24.70;96.90;;;;;;5031883;28;20043;-58
2023/06/17 11:30:50;;;;;;;14.05;11.27;;;24.90;97.10;;;;;;5030725;28;20033;-59
2023/06/17 11:33:20;;;;;;;12.48;10.57;;;24.80;96.50;;;;;;5051586;28;20123;-59
2023/06/17 11:35:48;;;;;;;18.13;10.32;;;24.80;96.70;;;;;;5050629;28;20138;-58
2023/06/17 11:38:16;;;;;;;12.52;10.57;;;25.10;96.80;;;;;;5066204;28;20040;-59
2023/06/17 11:40:42;;;;;;;12.55;10.25;;;25.20;96.40;;;;;;5068022;28;20071;-59
2023/06/17 11:43:11;;;;;;;14.32;10.55;;;25.40;96.00;;;;;;5065877;28;20055;-59
2023/06/17 11:45:37;;;;;;;13.90;9.70;;;25.30;95.60;;;;;;5068580;28;20059;-59
2023/06/17 11:48:05;;;;;;;13.10;9.75;;;25.40;96.00;;;;;;5065390;28;20044;-60
2023/06/17 11:50:31;;;;;;;10.70;8.90;;;25.30;95.40;;;;;;5063489;28;20538;-59
2023/06/17 11:52:57;;;;;;;16.33;11.38;;;25.60;95.50;;;;;;5042537;28;20045;-59
2023/06/17 11:55:34;;;;;;;11.50;8.65;;;25.20;94.40;;;;;;5066570;28;20573;-59
2023/06/17 11:58:02;;;;;;;11.88;8.82;;;25.20;94.60;;;;;;5033546;28;20048;-59
2023/06/17 12:00:29;;;;;;;15.70;9.25;;;25.40;94.50;;;;;;5068831;28;20044;-58
2023/06/17 12:02:57;;;;;;;12.13;9.27;;;25.60;94.70;;;;;;5046675;28;20655;-58
2023/06/17 12:05:27;;;;;;;13.27;8.45;;;25.80;94.20;;;;;;5045285;28;20049;-58
2023/06/17 12:07:53;;;;;;;11.57;9.02;;;26.00;93.70;;;;;;5059341;28;20442;-59
2023/06/17 12:10:19;;;;;;;10.88;8.10;;;25.80;92.60;;;;;;5064996;28;20111;-57
2023/06/17 12:12:46;;;;;;;10.90;9.20;;;25.70;92.80;;;;;;5064861;28;20124;-59
2023/06/17 12:15:12;;;;;;;11.80;8.23;;;25.80;93.10;;;;;;5065030;28;20115;-59
2023/06/17 12:17:40;;;;;;;11.30;8.30;;;26.00;93.30;;;;;;5063107;28;20178;-60
2023/06/17 12:20:15;;;;;;;12.35;8.10;;;26.10;93.70;;;;;;5067003;28;20036;-60
2023/06/17 12:22:41;;;;;;;13.20;8.55;;;25.80;91.70;;;;;;5062257;28;20129;-60
2023/06/17 12:25:07;;;;;;;10.52;7.72;;;26.00;92.80;;;;;;5059366;28;20044;-59
2023/06/17 12:27:33;;;;;;;9.70;8.23;;;26.30;92.60;;;;;;5061042;28;20033;-58
2023/06/17 12:30:00;;;;;;;11.23;8.65;;;26.20;92.10;;;;;;5045635;28;20031;-59